createdAt,value
2022-09-30T00:04:39.601Z,13.33
2022-09-30T00:08:32.034Z,13.22
2022-09-30T00:12:24.029Z,13.17
2022-09-30T00:16:19.370Z,13.14
2022-09-30T00:35:55.939Z,12.86
2022-09-30T00:39:47.255Z,12.81
2022-09-30T00:56:08.355Z,12.54
2022-09-30T01:00:00.858Z,12.50
2022-09-30T01:03:53.795Z,12.49
2022-09-30T01:07:46.123Z,12.47
2022-09-30T01:11:39.272Z,12.46
2022-09-30T01:50:37.911Z,11.82
2022-09-30T01:54:32.774Z,11.77
2022-09-30T01:58:29.294Z,11.76
2022-09-30T02:02:33.362Z,11.70
2022-09-30T02:06:40.678Z,11.63
2022-09-30T02:10:33.235Z,11.54
2022-09-30T02:14:25.939Z,11.46
2022-09-30T02:18:18.313Z,11.45
2022-09-30T02:22:10.594Z,11.38
2022-09-30T02:26:02.843Z,11.28
2022-09-30T02:30:00.503Z,11.23
2022-09-30T02:34:04.918Z,11.16
2022-09-30T02:38:16.017Z,11.15
2022-09-30T03:21:12.065Z,10.76
2022-09-30T03:25:16.919Z,10.72
2022-09-30T03:29:23.540Z,10.70
2022-09-30T03:33:25.487Z,10.72
2022-09-30T03:37:26.760Z,10.75
2022-09-30T03:41:20.862Z,10.79
2022-09-30T03:45:26.323Z,10.87
2022-09-30T03:49:17.647Z,10.90
2022-09-30T03:53:10.482Z,10.91
2022-09-30T03:57:05.122Z,10.90
2022-09-30T04:20:29.414Z,11.05
2022-09-30T04:24:21.638Z,11.05
2022-09-30T04:28:07.071Z,11.07
2022-09-30T04:32:00.450Z,11.06
2022-09-30T04:47:41.032Z,11.15
2022-09-30T04:51:23.537Z,11.13
2022-09-30T04:55:15.564Z,11.14
2022-09-30T04:59:07.374Z,11.17
2022-09-30T05:22:32.036Z,11.31
2022-09-30T05:26:16.955Z,11.28
2022-09-30T05:30:02.964Z,11.32
2022-09-30T05:45:47.532Z,11.62
2022-09-30T05:49:39.977Z,11.63
2022-09-30T05:53:32.420Z,11.66
2022-09-30T06:08:58.757Z,12.01
2022-09-30T06:12:51.632Z,12.13
2022-09-30T06:20:42.461Z,12.42
2022-09-30T06:24:35.706Z,12.53
2022-09-30T06:28:27.921Z,12.61
2022-09-30T06:47:57.171Z,13.27
2022-09-30T06:51:53.093Z,13.38
2022-09-30T06:55:46.081Z,13.46
2022-09-30T07:07:46.794Z,13.86
2022-09-30T07:11:39.793Z,13.99
2022-09-30T07:15:35.847Z,14.15
2022-09-30T07:31:39.292Z,14.58
2022-09-30T07:35:24.376Z,14.63
2022-09-30T07:39:17.050Z,14.68
2022-09-30T07:59:00.489Z,15.33
2022-09-30T08:02:59.859Z,15.37
2022-09-30T08:10:54.921Z,15.55
2022-09-30T08:14:45.503Z,15.68
2022-09-30T08:18:27.491Z,15.77
2022-09-30T08:22:19.841Z,15.82
2022-09-30T08:38:07.125Z,16.16
2022-09-30T08:42:32.274Z,16.19
2022-09-30T08:46:28.821Z,16.21
2022-09-30T08:50:29.346Z,16.28
2022-09-30T08:54:21.513Z,16.34
2022-09-30T08:58:17.049Z,16.40
2022-09-30T09:14:11.732Z,16.42
2022-09-30T09:18:22.207Z,16.45
2022-09-30T09:22:15.214Z,16.55
2022-09-30T09:26:07.794Z,16.65
2022-09-30T09:29:54.235Z,16.83
2022-09-30T09:33:46.158Z,17.22
2022-09-30T09:37:43.936Z,17.79
2022-09-30T09:41:43.347Z,18.53
2022-09-30T09:46:05.938Z,19.19
2022-09-30T09:50:16.658Z,19.79
2022-09-30T09:54:14.611Z,20.10
2022-09-30T09:58:09.647Z,20.35
2022-09-30T10:02:17.434Z,20.76
2022-09-30T10:06:07.650Z,21.41
2022-09-30T10:10:03.525Z,21.95
2022-09-30T10:37:22.426Z,23.09
2022-09-30T10:41:15.031Z,22.72
2022-09-30T10:45:07.876Z,22.46
2022-09-30T10:49:02.536Z,22.14
2022-09-30T11:08:16.547Z,21.30
2022-09-30T11:12:13.749Z,21.10
2022-09-30T11:15:54.164Z,21.01
2022-09-30T11:19:44.876Z,20.88
2022-09-30T11:23:46.272Z,20.73
2022-09-30T11:27:38.080Z,20.77
2022-09-30T11:31:31.998Z,20.72
2022-09-30T11:35:26.585Z,20.84
2022-09-30T11:39:35.688Z,20.94
2022-09-30T11:43:30.212Z,21.05
2022-09-30T11:47:31.825Z,21.03
2022-09-30T11:51:17.618Z,20.98
2022-09-30T11:55:15.185Z,20.95
2022-09-30T11:58:58.131Z,21.21
2022-09-30T12:02:53.019Z,22.03
2022-09-30T12:06:19.745Z,22.61
2022-09-30T12:10:27.334Z,23.27
2022-09-30T12:14:31.199Z,23.79
2022-09-30T12:17:44.610Z,24.35
2022-09-30T12:21:29.343Z,24.80
2022-09-30T12:24:53.569Z,24.74
2022-09-30T12:28:36.313Z,25.06
2022-09-30T12:32:26.947Z,24.88
2022-09-30T12:36:03.209Z,24.43
2022-09-30T12:39:52.078Z,24.06
2022-09-30T12:43:20.943Z,24.11
2022-09-30T12:46:52.086Z,24.24
2022-09-30T12:50:04.910Z,24.69
2022-09-30T12:53:36.525Z,24.87
2022-09-30T12:56:51.480Z,25.03
2022-09-30T12:59:46.405Z,24.91
2022-09-30T13:03:16.647Z,24.59
2022-09-30T13:06:30.518Z,24.34
2022-09-30T13:10:00.866Z,24.07
2022-09-30T13:13:46.959Z,23.90
2022-09-30T13:17:42.672Z,23.81
2022-09-30T13:21:35.545Z,24.19
2022-09-30T13:25:01.211Z,24.28
2022-09-30T13:28:32.507Z,24.09
2022-09-30T13:32:16.822Z,23.88
2022-09-30T13:35:19.754Z,24.09
2022-09-30T13:39:15.158Z,24.12
2022-09-30T13:43:04.693Z,24.08
2022-09-30T13:46:40.297Z,24.22
2022-09-30T13:50:12.956Z,24.28
2022-09-30T13:53:47.471Z,24.64
2022-09-30T14:04:20.675Z,24.83
2022-09-30T14:07:46.415Z,24.76
2022-09-30T14:11:34.912Z,24.53
2022-09-30T14:15:30.306Z,24.34
2022-09-30T14:19:18.284Z,24.00
2022-09-30T14:26:36.830Z,23.52
2022-09-30T14:30:01.438Z,23.43
2022-09-30T14:34:02.705Z,23.39
2022-09-30T14:37:56.797Z,23.30
2022-09-30T14:41:36.223Z,23.17
2022-09-30T14:45:29.745Z,23.20
2022-09-30T14:49:06.970Z,23.13
2022-09-30T14:53:18.279Z,23.01
2022-09-30T14:57:22.481Z,22.75
2022-09-30T15:01:23.490Z,22.63
2022-09-30T15:05:22.264Z,22.45
2022-09-30T15:24:36.931Z,21.47
2022-09-30T15:28:12.311Z,21.37
2022-09-30T15:31:35.479Z,21.27
2022-09-30T15:34:59.465Z,21.15
2022-09-30T15:38:19.265Z,20.97
2022-09-30T16:04:18.144Z,19.80
2022-09-30T16:08:09.657Z,19.61
2022-09-30T16:11:51.784Z,19.42
2022-09-30T16:15:42.586Z,19.19
2022-09-30T16:39:06.234Z,18.13
2022-09-30T16:42:59.120Z,17.86
2022-09-30T16:46:51.665Z,17.62
2022-09-30T16:50:45.083Z,17.22
2022-09-30T16:54:18.947Z,17.01
2022-09-30T17:17:16.562Z,16.18
2022-09-30T17:21:08.742Z,16.05
2022-09-30T17:40:33.612Z,15.36
2022-09-30T17:44:25.631Z,15.14
2022-09-30T17:48:18.119Z,14.96
2022-09-30T18:00:17.554Z,14.66
2022-09-30T18:04:10.600Z,14.57
2022-09-30T18:19:52.492Z,14.34
2022-09-30T18:23:45.985Z,14.16
2022-09-30T18:27:38.595Z,14.04
2022-09-30T18:43:22.060Z,13.80
2022-09-30T18:47:17.202Z,13.69
2022-09-30T19:02:59.238Z,13.54
2022-09-30T19:06:51.339Z,13.45
2022-09-30T19:10:43.577Z,13.35
2022-09-30T19:22:30.640Z,13.33
2022-09-30T19:26:24.078Z,13.26
2022-09-30T19:42:05.351Z,13.12
2022-09-30T19:45:58.235Z,13.00
2022-09-30T19:49:50.421Z,12.96
2022-09-30T19:53:44.924Z,12.93
2022-09-30T20:09:34.048Z,12.96
2022-09-30T20:13:27.126Z,12.88
2022-09-30T20:17:12.127Z,12.85
2022-09-30T20:21:00.722Z,12.82
2022-09-30T20:36:48.616Z,12.59
2022-09-30T20:40:41.420Z,12.53
2022-09-30T20:48:41.963Z,12.48
2022-09-30T21:08:15.305Z,12.25
2022-09-30T21:12:10.862Z,12.24
2022-09-30T21:16:05.526Z,12.21
2022-09-30T21:19:58.940Z,12.21
2022-09-30T21:35:36.796Z,12.22
2022-09-30T21:39:28.424Z,12.21
2022-09-30T21:43:20.798Z,12.29
2022-09-30T21:58:46.493Z,12.57
2022-09-30T22:02:39.502Z,12.57
2022-09-30T22:10:29.591Z,12.63
2022-09-30T22:14:22.500Z,12.57
2022-09-30T22:18:15.364Z,12.51
2022-09-30T22:45:28.548Z,12.28
2022-09-30T22:49:19.919Z,12.24
2022-09-30T22:53:12.512Z,12.19
2022-09-30T23:08:41.880Z,11.98
2022-09-30T23:12:36.024Z,11.85
2022-09-30T23:16:28.865Z,11.67
2022-09-30T23:20:13.401Z,11.68
2022-09-30T23:39:55.733Z,11.67
2022-09-30T23:43:48.707Z,11.65
2022-09-30T23:47:43.195Z,11.64
2022-09-30T23:51:34.983Z,11.61
2022-09-30T23:55:28.549Z,11.57
